MA55 weather

Muskeget Island Airport
Muskeget Island, Massachusetts, United States

Public forecast

Using degrees Fahrenheit for public forecast. Weather courtesy of forecast.io.

METAR (pilot weather report)

Closest report is Nantucket Memorial Airport, 11.9 nm (22.0 km) ESE. Retrieved 2019/07/20 04:41 UTC (0 seconds ago):

KACK 200441Z AUTO 22007KT 1/2SM R24/3500V4500FT FG VV002 21/21 A2982 RMK AO2 T02110206 PNO

TAF (pilot weather forecast)

Forecast is more than 12 hours old.

Closest forecast is Nantucket Memorial Airport, 11.9 nm (22.0 km) ESE. Retrieved 2019/07/19 00:30 UTC (1 day ago):

TAF KACK 192328Z 2000/2024 24012KT 2SM BR BKN003 FM200800 25006KT 4SM BR SCT003 FM201200 26010KT P6SM SCT060